sensor_id;sensor_type;location;lat;lon;timestamp;P1;durP1;ratioP1;P2;durP2;ratioP2
69856;SDS011;57147;53.582;10.112;2022-10-16T00:04:00;9.18;;;4.68;;
69856;SDS011;57147;53.582;10.112;2022-10-16T00:09:01;7.32;;;3.95;;
69856;SDS011;57147;53.582;10.112;2022-10-16T00:14:04;6.22;;;3.67;;
69856;SDS011;57147;53.582;10.112;2022-10-16T00:19:09;4.97;;;3.28;;
69856;SDS011;57147;53.582;10.112;2022-10-16T00:24:10;6.22;;;4.15;;
69856;SDS011;57147;53.582;10.112;2022-10-16T00:29:11;6.32;;;3.25;;
69856;SDS011;57147;53.582;10.112;2022-10-16T00:34:14;5.07;;;3.13;;
69856;SDS011;57147;53.582;10.112;2022-10-16T00:39:14;8.60;;;4.32;;
69856;SDS011;57147;53.582;10.112;2022-10-16T00:49:50;9.68;;;5.47;;
69856;SDS011;57147;53.582;10.112;2022-10-16T00:54:53;12.02;;;7.60;;
69856;SDS011;57147;53.582;10.112;2022-10-16T00:59:55;8.15;;;4.70;;
69856;SDS011;57147;53.582;10.112;2022-10-16T01:04:59;10.95;;;4.65;;
69856;SDS011;57147;53.582;10.112;2022-10-16T01:10:03;10.73;;;6.10;;
69856;SDS011;57147;53.582;10.112;2022-10-16T01:15:14;7.47;;;5.30;;
69856;SDS011;57147;53.582;10.112;2022-10-16T01:20:25;7.20;;;4.10;;
69856;SDS011;57147;53.582;10.112;2022-10-16T01:25:30;7.65;;;4.80;;
69856;SDS011;57147;53.582;10.112;2022-10-16T01:30:40;6.15;;;4.10;;
69856;SDS011;57147;53.582;10.112;2022-10-16T01:35:44;6.30;;;3.70;;
69856;SDS011;57147;53.582;10.112;2022-10-16T01:40:49;5.25;;;3.30;;
69856;SDS011;57147;53.582;10.112;2022-10-16T01:45:55;8.85;;;4.20;;
69856;SDS011;57147;53.582;10.112;2022-10-16T01:50:59;7.82;;;5.57;;
69856;SDS011;57147;53.582;10.112;2022-10-16T01:56:04;7.40;;;4.05;;
69856;SDS011;57147;53.582;10.112;2022-10-16T02:01:11;7.93;;;5.10;;
69856;SDS011;57147;53.582;10.112;2022-10-16T02:06:13;6.70;;;3.88;;
69856;SDS011;57147;53.582;10.112;2022-10-16T02:11:14;3.88;;;2.58;;
69856;SDS011;57147;53.582;10.112;2022-10-16T02:16:17;5.38;;;2.78;;
69856;SDS011;57147;53.582;10.112;2022-10-16T02:21:19;7.28;;;3.67;;
69856;SDS011;57147;53.582;10.112;2022-10-16T02:26:26;4.30;;;3.22;;
69856;SDS011;57147;53.582;10.112;2022-10-16T02:31:33;6.35;;;3.45;;
69856;SDS011;57147;53.582;10.112;2022-10-16T02:36:38;6.38;;;2.30;;
69856;SDS011;57147;53.582;10.112;2022-10-16T02:41:40;6.55;;;3.28;;
69856;SDS011;57147;53.582;10.112;2022-10-16T02:46:43;4.00;;;2.40;;
69856;SDS011;57147;53.582;10.112;2022-10-16T02:51:44;4.85;;;2.92;;
69856;SDS011;57147;53.582;10.112;2022-10-16T02:56:44;4.05;;;1.67;;
69856;SDS011;57147;53.582;10.112;2022-10-16T03:01:48;6.40;;;1.88;;
69856;SDS011;57147;53.582;10.112;2022-10-16T03:06:48;7.97;;;2.17;;
69856;SDS011;57147;53.582;10.112;2022-10-16T03:11:49;5.40;;;2.97;;
69856;SDS011;57147;53.582;10.112;2022-10-16T03:16:52;6.88;;;1.98;;
69856;SDS011;57147;53.582;10.112;2022-10-16T03:21:52;6.30;;;1.92;;
69856;SDS011;57147;53.582;10.112;2022-10-16T03:26:53;5.53;;;1.58;;
69856;SDS011;57147;53.582;10.112;2022-10-16T03:31:56;3.35;;;2.10;;
69856;SDS011;57147;53.582;10.112;2022-10-16T03:36:56;4.50;;;2.92;;
69856;SDS011;57147;53.582;10.112;2022-10-16T03:41:57;5.10;;;2.30;;
69856;SDS011;57147;53.582;10.112;2022-10-16T03:47:00;3.85;;;0.93;;
69856;SDS011;57147;53.582;10.112;2022-10-16T03:52:01;3.60;;;1.52;;
69856;SDS011;57147;53.582;10.112;2022-10-16T03:57:01;3.95;;;1.92;;
69856;SDS011;57147;53.582;10.112;2022-10-16T04:02:05;4.63;;;2.08;;
69856;SDS011;57147;53.582;10.112;2022-10-16T04:07:05;5.68;;;1.83;;
69856;SDS011;57147;53.582;10.112;2022-10-16T04:12:06;4.13;;;1.52;;
69856;SDS011;57147;53.582;10.112;2022-10-16T04:17:09;2.97;;;1.83;;
69856;SDS011;57147;53.582;10.112;2022-10-16T04:22:09;5.88;;;2.28;;
69856;SDS011;57147;53.582;10.112;2022-10-16T04:27:10;3.08;;;1.08;;
69856;SDS011;57147;53.582;10.112;2022-10-16T04:32:13;4.20;;;1.40;;
69856;SDS011;57147;53.582;10.112;2022-10-16T04:37:14;3.08;;;0.65;;
69856;SDS011;57147;53.582;10.112;2022-10-16T04:42:14;5.05;;;1.70;;
69856;SDS011;57147;53.582;10.112;2022-10-16T04:47:17;2.80;;;1.25;;
69856;SDS011;57147;53.582;10.112;2022-10-16T04:52:18;4.03;;;1.73;;
69856;SDS011;57147;53.582;10.112;2022-10-16T04:57:18;2.00;;;0.68;;
69856;SDS011;57147;53.582;10.112;2022-10-16T05:02:21;4.38;;;1.38;;
69856;SDS011;57147;53.582;10.112;2022-10-16T05:07:22;2.42;;;1.33;;
69856;SDS011;57147;53.582;10.112;2022-10-16T05:12:23;6.15;;;1.38;;
69856;SDS011;57147;53.582;10.112;2022-10-16T05:17:26;3.10;;;1.65;;
69856;SDS011;57147;53.582;10.112;2022-10-16T05:22:27;5.70;;;1.33;;
69856;SDS011;57147;53.582;10.112;2022-10-16T05:27:27;6.18;;;2.10;;
69856;SDS011;57147;53.582;10.112;2022-10-16T05:32:30;3.85;;;1.20;;
69856;SDS011;57147;53.582;10.112;2022-10-16T05:37:31;5.20;;;1.48;;
69856;SDS011;57147;53.582;10.112;2022-10-16T05:42:32;4.32;;;2.13;;
69856;SDS011;57147;53.582;10.112;2022-10-16T05:47:35;6.45;;;2.67;;
69856;SDS011;57147;53.582;10.112;2022-10-16T05:52:35;5.22;;;2.05;;
69856;SDS011;57147;53.582;10.112;2022-10-16T05:57:36;8.05;;;3.60;;
69856;SDS011;57147;53.582;10.112;2022-10-16T06:02:39;5.93;;;2.55;;
69856;SDS011;57147;53.582;10.112;2022-10-16T06:07:40;3.03;;;1.60;;
69856;SDS011;57147;53.582;10.112;2022-10-16T06:12:40;4.65;;;1.85;;
69856;SDS011;57147;53.582;10.112;2022-10-16T06:17:43;3.83;;;1.80;;
69856;SDS011;57147;53.582;10.112;2022-10-16T06:22:44;4.32;;;1.80;;
69856;SDS011;57147;53.582;10.112;2022-10-16T06:27:44;4.35;;;1.15;;
69856;SDS011;57147;53.582;10.112;2022-10-16T06:32:48;4.10;;;1.65;;
69856;SDS011;57147;53.582;10.112;2022-10-16T06:37:48;5.70;;;1.70;;
69856;SDS011;57147;53.582;10.112;2022-10-16T06:42:49;7.93;;;3.03;;
69856;SDS011;57147;53.582;10.112;2022-10-16T06:47:52;7.15;;;3.15;;
69856;SDS011;57147;53.582;10.112;2022-10-16T06:52:52;7.88;;;2.72;;
69856;SDS011;57147;53.582;10.112;2022-10-16T06:57:53;9.13;;;4.70;;
69856;SDS011;57147;53.582;10.112;2022-10-16T07:02:56;4.25;;;2.35;;
69856;SDS011;57147;53.582;10.112;2022-10-16T07:07:57;5.43;;;2.00;;
69856;SDS011;57147;53.582;10.112;2022-10-16T07:12:57;5.68;;;3.10;;
69856;SDS011;57147;53.582;10.112;2022-10-16T07:18:00;6.25;;;2.33;;
69856;SDS011;57147;53.582;10.112;2022-10-16T07:23:01;6.72;;;2.33;;
69856;SDS011;57147;53.582;10.112;2022-10-16T07:28:01;9.07;;;3.33;;
69856;SDS011;57147;53.582;10.112;2022-10-16T07:33:05;5.75;;;2.22;;
69856;SDS011;57147;53.582;10.112;2022-10-16T07:38:05;6.57;;;2.53;;
69856;SDS011;57147;53.582;10.112;2022-10-16T07:43:06;3.50;;;2.17;;
69856;SDS011;57147;53.582;10.112;2022-10-16T07:48:09;5.20;;;1.85;;
69856;SDS011;57147;53.582;10.112;2022-10-16T07:53:10;2.75;;;1.17;;
69856;SDS011;57147;53.582;10.112;2022-10-16T07:58:11;4.55;;;2.38;;
69856;SDS011;57147;53.582;10.112;2022-10-16T08:03:14;7.05;;;1.60;;
69856;SDS011;57147;53.582;10.112;2022-10-16T08:08:15;3.90;;;1.50;;
69856;SDS011;57147;53.582;10.112;2022-10-16T08:13:17;5.25;;;2.38;;
69856;SDS011;57147;53.582;10.112;2022-10-16T08:18:20;4.53;;;1.23;;
69856;SDS011;57147;53.582;10.112;2022-10-16T08:23:20;5.80;;;2.83;;
69856;SDS011;57147;53.582;10.112;2022-10-16T08:28:21;6.70;;;2.35;;
69856;SDS011;57147;53.582;10.112;2022-10-16T08:33:25;5.13;;;1.67;;
69856;SDS011;57147;53.582;10.112;2022-10-16T08:38:25;6.95;;;3.67;;
69856;SDS011;57147;53.582;10.112;2022-10-16T08:43:29;4.18;;;1.85;;
69856;SDS011;57147;53.582;10.112;2022-10-16T08:48:45;2.83;;;1.48;;
69856;SDS011;57147;53.582;10.112;2022-10-16T08:53:49;2.47;;;1.20;;
69856;SDS011;57147;53.582;10.112;2022-10-16T08:58:53;3.60;;;1.23;;
69856;SDS011;57147;53.582;10.112;2022-10-16T09:04:04;3.80;;;1.95;;
69856;SDS011;57147;53.582;10.112;2022-10-16T09:09:32;5.18;;;1.02;;
69856;SDS011;57147;53.582;10.112;2022-10-16T09:14:45;3.63;;;0.82;;
69856;SDS011;57147;53.582;10.112;2022-10-16T09:19:56;2.25;;;0.73;;
69856;SDS011;57147;53.582;10.112;2022-10-16T09:25:10;2.17;;;1.13;;
69856;SDS011;57147;53.582;10.112;2022-10-16T09:30:12;4.07;;;0.98;;
69856;SDS011;57147;53.582;10.112;2022-10-16T09:35:19;3.40;;;0.57;;
69856;SDS011;57147;53.582;10.112;2022-10-16T09:40:25;2.60;;;0.77;;
69856;SDS011;57147;53.582;10.112;2022-10-16T09:45:26;7.80;;;2.72;;
69856;SDS011;57147;53.582;10.112;2022-10-16T09:50:30;2.22;;;0.70;;
69856;SDS011;57147;53.582;10.112;2022-10-16T09:55:30;3.95;;;0.28;;
69856;SDS011;57147;53.582;10.112;2022-10-16T10:00:31;2.17;;;0.63;;
69856;SDS011;57147;53.582;10.112;2022-10-16T10:05:34;5.35;;;1.17;;
69856;SDS011;57147;53.582;10.112;2022-10-16T10:10:37;4.13;;;0.40;;
69856;SDS011;57147;53.582;10.112;2022-10-16T10:15:41;4.93;;;1.35;;
69856;SDS011;57147;53.582;10.112;2022-10-16T10:20:44;2.40;;;0.68;;
69856;SDS011;57147;53.582;10.112;2022-10-16T10:25:49;2.65;;;0.80;;
69856;SDS011;57147;53.582;10.112;2022-10-16T10:30:58;4.55;;;0.82;;
69856;SDS011;57147;53.582;10.112;2022-10-16T10:36:08;4.28;;;0.88;;
69856;SDS011;57147;53.582;10.112;2022-10-16T10:41:22;2.33;;;0.75;;
69856;SDS011;57147;53.582;10.112;2022-10-16T10:46:42;3.03;;;0.68;;
69856;SDS011;57147;53.582;10.112;2022-10-16T10:51:55;3.10;;;0.47;;
69856;SDS011;57147;53.582;10.112;2022-10-16T10:57:02;7.60;;;1.30;;
69856;SDS011;57147;53.582;10.112;2022-10-16T11:02:10;8.15;;;0.60;;
69856;SDS011;57147;53.582;10.112;2022-10-16T11:07:21;4.07;;;0.57;;
69856;SDS011;57147;53.582;10.112;2022-10-16T11:12:27;4.00;;;0.98;;
69856;SDS011;57147;53.582;10.112;2022-10-16T11:17:31;2.03;;;0.47;;
69856;SDS011;57147;53.582;10.112;2022-10-16T11:22:38;2.72;;;0.47;;
69856;SDS011;57147;53.582;10.112;2022-10-16T11:27:43;2.15;;;0.70;;
69856;SDS011;57147;53.582;10.112;2022-10-16T11:32:50;4.68;;;0.40;;
69856;SDS011;57147;53.582;10.112;2022-10-16T11:37:59;2.17;;;0.47;;
69856;SDS011;57147;53.582;10.112;2022-10-16T11:43:06;2.55;;;0.40;;
69856;SDS011;57147;53.582;10.112;2022-10-16T11:48:16;2.75;;;0.50;;
69856;SDS011;57147;53.582;10.112;2022-10-16T11:53:28;2.45;;;0.40;;
69856;SDS011;57147;53.582;10.112;2022-10-16T11:58:39;4.13;;;1.05;;
69856;SDS011;57147;53.582;10.112;2022-10-16T12:03:48;4.68;;;0.50;;
69856;SDS011;57147;53.582;10.112;2022-10-16T12:09:02;5.20;;;0.90;;
69856;SDS011;57147;53.582;10.112;2022-10-16T12:19:13;4.18;;;1.00;;
69856;SDS011;57147;53.582;10.112;2022-10-16T12:24:26;4.70;;;0.88;;
69856;SDS011;57147;53.582;10.112;2022-10-16T12:29:33;4.38;;;0.80;;
69856;SDS011;57147;53.582;10.112;2022-10-16T12:39:41;3.33;;;0.80;;
69856;SDS011;57147;53.582;10.112;2022-10-16T12:44:41;3.22;;;0.77;;
69856;SDS011;57147;53.582;10.112;2022-10-16T12:49:47;2.83;;;0.85;;
69856;SDS011;57147;53.582;10.112;2022-10-16T12:54:52;4.60;;;0.30;;
69856;SDS011;57147;53.582;10.112;2022-10-16T12:59:58;2.05;;;0.68;;
69856;SDS011;57147;53.582;10.112;2022-10-16T13:05:09;6.03;;;1.02;;
69856;SDS011;57147;53.582;10.112;2022-10-16T13:10:27;3.40;;;2.25;;
69856;SDS011;57147;53.582;10.112;2022-10-16T13:15:38;3.88;;;0.57;;
69856;SDS011;57147;53.582;10.112;2022-10-16T13:20:56;2.60;;;0.93;;
69856;SDS011;57147;53.582;10.112;2022-10-16T13:26:12;8.63;;;1.08;;
69856;SDS011;57147;53.582;10.112;2022-10-16T13:31:20;5.70;;;1.30;;
69856;SDS011;57147;53.582;10.112;2022-10-16T13:36:25;3.08;;;0.40;;
69856;SDS011;57147;53.582;10.112;2022-10-16T13:41:29;3.92;;;0.88;;
69856;SDS011;57147;53.582;10.112;2022-10-16T13:46:30;6.63;;;0.82;;
69856;SDS011;57147;53.582;10.112;2022-10-16T13:51:31;2.90;;;1.00;;
69856;SDS011;57147;53.582;10.112;2022-10-16T13:56:35;2.53;;;1.13;;
69856;SDS011;57147;53.582;10.112;2022-10-16T14:01:39;4.22;;;0.75;;
69856;SDS011;57147;53.582;10.112;2022-10-16T14:06:42;3.72;;;0.52;;
69856;SDS011;57147;53.582;10.112;2022-10-16T14:11:48;4.28;;;0.38;;
69856;SDS011;57147;53.582;10.112;2022-10-16T14:16:50;3.97;;;0.68;;
69856;SDS011;57147;53.582;10.112;2022-10-16T14:21:51;3.67;;;0.95;;
69856;SDS011;57147;53.582;10.112;2022-10-16T14:26:55;4.68;;;0.35;;
69856;SDS011;57147;53.582;10.112;2022-10-16T14:31:56;4.72;;;0.35;;
69856;SDS011;57147;53.582;10.112;2022-10-16T14:36:58;3.58;;;0.35;;
69856;SDS011;57147;53.582;10.112;2022-10-16T14:42:03;4.35;;;0.90;;
69856;SDS011;57147;53.582;10.112;2022-10-16T14:47:06;6.63;;;0.93;;
69856;SDS011;57147;53.582;10.112;2022-10-16T14:52:09;4.50;;;0.43;;
69856;SDS011;57147;53.582;10.112;2022-10-16T14:57:18;4.18;;;0.30;;
69856;SDS011;57147;53.582;10.112;2022-10-16T15:02:29;3.85;;;1.00;;
69856;SDS011;57147;53.582;10.112;2022-10-16T15:07:31;3.67;;;0.60;;
69856;SDS011;57147;53.582;10.112;2022-10-16T15:12:34;5.00;;;0.73;;
69856;SDS011;57147;53.582;10.112;2022-10-16T15:17:34;5.00;;;1.10;;
69856;SDS011;57147;53.582;10.112;2022-10-16T15:22:35;3.80;;;0.75;;
69856;SDS011;57147;53.582;10.112;2022-10-16T15:27:38;4.55;;;0.60;;
69856;SDS011;57147;53.582;10.112;2022-10-16T15:32:39;4.13;;;1.92;;
69856;SDS011;57147;53.582;10.112;2022-10-16T15:37:39;6.13;;;1.05;;
69856;SDS011;57147;53.582;10.112;2022-10-16T15:42:42;5.20;;;0.60;;
69856;SDS011;57147;53.582;10.112;2022-10-16T15:47:43;5.60;;;0.73;;
69856;SDS011;57147;53.582;10.112;2022-10-16T15:52:44;4.72;;;0.88;;
69856;SDS011;57147;53.582;10.112;2022-10-16T15:57:47;6.35;;;1.27;;
69856;SDS011;57147;53.582;10.112;2022-10-16T16:02:50;5.35;;;1.40;;
69856;SDS011;57147;53.582;10.112;2022-10-16T16:07:51;7.25;;;1.65;;
69856;SDS011;57147;53.582;10.112;2022-10-16T16:12:55;7.68;;;2.30;;
69856;SDS011;57147;53.582;10.112;2022-10-16T16:17:55;9.30;;;1.52;;
69856;SDS011;57147;53.582;10.112;2022-10-16T16:22:56;6.65;;;1.45;;
69856;SDS011;57147;53.582;10.112;2022-10-16T16:27:59;5.28;;;1.65;;
69856;SDS011;57147;53.582;10.112;2022-10-16T16:32:59;8.23;;;1.58;;
69856;SDS011;57147;53.582;10.112;2022-10-16T16:38:00;8.77;;;2.20;;
69856;SDS011;57147;53.582;10.112;2022-10-16T16:43:03;11.00;;;4.38;;
69856;SDS011;57147;53.582;10.112;2022-10-16T16:48:04;10.50;;;3.90;;
69856;SDS011;57147;53.582;10.112;2022-10-16T16:53:05;22.38;;;11.63;;
69856;SDS011;57147;53.582;10.112;2022-10-16T16:58:08;11.27;;;5.50;;
69856;SDS011;57147;53.582;10.112;2022-10-16T17:03:09;10.43;;;3.78;;
69856;SDS011;57147;53.582;10.112;2022-10-16T17:08:09;10.68;;;3.00;;
69856;SDS011;57147;53.582;10.112;2022-10-16T17:13:12;8.55;;;2.83;;
69856;SDS011;57147;53.582;10.112;2022-10-16T17:18:13;7.22;;;1.92;;
69856;SDS011;57147;53.582;10.112;2022-10-16T17:23:14;6.32;;;1.98;;
69856;SDS011;57147;53.582;10.112;2022-10-16T17:28:18;5.90;;;2.55;;
69856;SDS011;57147;53.582;10.112;2022-10-16T17:33:19;8.10;;;3.92;;
69856;SDS011;57147;53.582;10.112;2022-10-16T17:38:19;6.97;;;3.10;;
69856;SDS011;57147;53.582;10.112;2022-10-16T17:43:23;5.70;;;1.73;;
69856;SDS011;57147;53.582;10.112;2022-10-16T17:48:23;9.88;;;2.33;;
69856;SDS011;57147;53.582;10.112;2022-10-16T17:53:24;10.18;;;4.88;;
69856;SDS011;57147;53.582;10.112;2022-10-16T17:58:27;12.32;;;5.57;;
69856;SDS011;57147;53.582;10.112;2022-10-16T18:03:28;23.15;;;13.07;;
69856;SDS011;57147;53.582;10.112;2022-10-16T18:08:28;11.98;;;4.80;;
69856;SDS011;57147;53.582;10.112;2022-10-16T18:13:31;13.65;;;6.55;;
69856;SDS011;57147;53.582;10.112;2022-10-16T18:18:32;10.90;;;4.43;;
69856;SDS011;57147;53.582;10.112;2022-10-16T18:23:33;10.85;;;4.50;;
69856;SDS011;57147;53.582;10.112;2022-10-16T18:28:46;11.20;;;3.70;;
69856;SDS011;57147;53.582;10.112;2022-10-16T18:33:59;9.93;;;4.13;;
69856;SDS011;57147;53.582;10.112;2022-10-16T18:39:11;12.15;;;4.25;;
69856;SDS011;57147;53.582;10.112;2022-10-16T18:44:33;14.38;;;6.47;;
69856;SDS011;57147;53.582;10.112;2022-10-16T18:49:55;14.45;;;5.55;;
69856;SDS011;57147;53.582;10.112;2022-10-16T18:55:03;12.32;;;5.43;;
69856;SDS011;57147;53.582;10.112;2022-10-16T19:00:45;16.75;;;7.47;;
69856;SDS011;57147;53.582;10.112;2022-10-16T19:11:31;18.27;;;8.05;;
69856;SDS011;57147;53.582;10.112;2022-10-16T19:16:49;20.73;;;8.90;;
69856;SDS011;57147;53.582;10.112;2022-10-16T19:22:03;15.93;;;7.63;;
69856;SDS011;57147;53.582;10.112;2022-10-16T19:27:27;15.18;;;7.22;;
69856;SDS011;57147;53.582;10.112;2022-10-16T19:38:30;18.38;;;11.10;;
69856;SDS011;57147;53.582;10.112;2022-10-16T19:43:38;13.40;;;7.10;;
69856;SDS011;57147;53.582;10.112;2022-10-16T19:48:55;12.35;;;6.03;;
69856;SDS011;57147;53.582;10.112;2022-10-16T19:54:06;13.13;;;5.60;;
69856;SDS011;57147;53.582;10.112;2022-10-16T19:59:35;14.65;;;7.07;;
69856;SDS011;57147;53.582;10.112;2022-10-16T20:04:43;16.17;;;6.05;;
69856;SDS011;57147;53.582;10.112;2022-10-16T20:09:47;11.75;;;4.30;;
69856;SDS011;57147;53.582;10.112;2022-10-16T20:14:56;13.63;;;7.85;;
69856;SDS011;57147;53.582;10.112;2022-10-16T20:20:05;14.57;;;8.15;;
69856;SDS011;57147;53.582;10.112;2022-10-16T20:25:12;16.05;;;7.97;;
69856;SDS011;57147;53.582;10.112;2022-10-16T20:30:15;21.85;;;12.02;;
69856;SDS011;57147;53.582;10.112;2022-10-16T20:35:19;15.02;;;8.10;;
69856;SDS011;57147;53.582;10.112;2022-10-16T20:40:20;16.80;;;7.63;;
69856;SDS011;57147;53.582;10.112;2022-10-16T20:45:35;12.00;;;5.75;;
69856;SDS011;57147;53.582;10.112;2022-10-16T20:50:58;11.10;;;6.22;;
69856;SDS011;57147;53.582;10.112;2022-10-16T20:55:59;11.82;;;5.63;;
69856;SDS011;57147;53.582;10.112;2022-10-16T21:01:10;11.98;;;5.25;;
69856;SDS011;57147;53.582;10.112;2022-10-16T21:06:22;10.65;;;5.80;;
69856;SDS011;57147;53.582;10.112;2022-10-16T21:11:25;12.20;;;5.38;;
69856;SDS011;57147;53.582;10.112;2022-10-16T21:16:33;11.98;;;7.05;;
69856;SDS011;57147;53.582;10.112;2022-10-16T21:21:46;12.13;;;6.15;;
69856;SDS011;57147;53.582;10.112;2022-10-16T21:26:57;12.25;;;6.72;;
69856;SDS011;57147;53.582;10.112;2022-10-16T21:31:58;11.45;;;7.72;;
69856;SDS011;57147;53.582;10.112;2022-10-16T21:37:08;12.13;;;6.57;;
69856;SDS011;57147;53.582;10.112;2022-10-16T21:42:12;12.23;;;6.80;;
69856;SDS011;57147;53.582;10.112;2022-10-16T21:47:13;10.77;;;6.20;;
69856;SDS011;57147;53.582;10.112;2022-10-16T21:52:19;13.43;;;7.20;;
69856;SDS011;57147;53.582;10.112;2022-10-16T21:57:20;14.63;;;7.40;;
69856;SDS011;57147;53.582;10.112;2022-10-16T22:02:26;12.52;;;7.28;;
69856;SDS011;57147;53.582;10.112;2022-10-16T22:07:30;11.77;;;6.35;;
69856;SDS011;57147;53.582;10.112;2022-10-16T22:12:33;9.52;;;6.88;;
69856;SDS011;57147;53.582;10.112;2022-10-16T22:17:34;10.68;;;6.63;;
69856;SDS011;57147;53.582;10.112;2022-10-16T22:22:41;11.18;;;5.80;;
69856;SDS011;57147;53.582;10.112;2022-10-16T22:27:42;12.23;;;6.43;;
69856;SDS011;57147;53.582;10.112;2022-10-16T22:32:43;11.07;;;6.57;;
69856;SDS011;57147;53.582;10.112;2022-10-16T22:37:47;12.50;;;5.95;;
69856;SDS011;57147;53.582;10.112;2022-10-16T22:42:48;13.07;;;6.85;;
69856;SDS011;57147;53.582;10.112;2022-10-16T22:47:54;15.57;;;5.22;;
69856;SDS011;57147;53.582;10.112;2022-10-16T22:53:05;11.32;;;5.68;;
69856;SDS011;57147;53.582;10.112;2022-10-16T22:58:06;13.40;;;7.32;;
69856;SDS011;57147;53.582;10.112;2022-10-16T23:03:07;8.40;;;4.78;;
69856;SDS011;57147;53.582;10.112;2022-10-16T23:08:14;8.65;;;4.25;;
69856;SDS011;57147;53.582;10.112;2022-10-16T23:13:18;11.02;;;4.18;;
69856;SDS011;57147;53.582;10.112;2022-10-16T23:18:23;7.35;;;3.92;;
69856;SDS011;57147;53.582;10.112;2022-10-16T23:23:32;8.10;;;2.97;;
69856;SDS011;57147;53.582;10.112;2022-10-16T23:28:36;14.88;;;7.75;;
69856;SDS011;57147;53.582;10.112;2022-10-16T23:33:43;11.70;;;4.72;;
69856;SDS011;57147;53.582;10.112;2022-10-16T23:38:54;15.73;;;8.40;;
69856;SDS011;57147;53.582;10.112;2022-10-16T23:43:58;13.25;;;6.75;;
69856;SDS011;57147;53.582;10.112;2022-10-16T23:49:06;5.70;;;2.75;;
69856;SDS011;57147;53.582;10.112;2022-10-16T23:54:12;6.55;;;2.88;;
69856;SDS011;57147;53.582;10.112;2022-10-16T23:59:13;7.85;;;3.70;;
